Time;durP1;ratioP1;P1;durP2;ratioP2;P2;SDS_P1;SDS_P2;PMS_P1;PMS_P2;Temp;Humidity;BMP_temperature;BMP_pressure;BME280_temperature;BME280_humidity;BME280_pressure;Samples;Min_cycle;Max_cycle;Signal;HPM_P1;HPM_P2
2022/03/15 00:01:11;;;;;;;38.80;21.92;;;;;;;5.22;41.89;101374.00;4974010;28;20139;-76
2022/03/15 00:03:40;;;;;;;43.88;21.45;;;;;;;5.18;41.95;101365.41;4973564;28;20061;-79
2022/03/15 00:06:07;;;;;;;35.45;21.45;;;;;;;5.19;41.88;101372.34;4970919;28;20053;-72
2022/03/15 00:08:34;;;;;;;33.60;21.10;;;;;;;5.17;41.83;101364.56;4969841;28;20057;-71
2022/03/15 00:11:05;;;;;;;39.35;21.00;;;;;;;5.16;41.85;101349.72;4970522;28;20134;-78
2022/03/15 00:13:33;;;;;;;47.50;22.13;;;;;;;5.17;41.83;101356.69;4970369;28;20047;-78
2022/03/15 00:16:01;;;;;;;42.40;22.23;;;;;;;5.16;41.78;101354.13;4970426;28;20152;-76
2022/03/15 00:18:31;;;;;;;41.72;23.10;;;;;;;5.13;41.92;101357.72;4970053;28;20097;-76
2022/03/15 00:21:00;;;;;;;32.72;20.60;;;;;;;5.12;41.87;101365.59;4969930;28;20047;-72
2022/03/15 00:23:28;;;;;;;41.95;19.73;;;;;;;5.10;41.89;101362.19;4970149;28;20051;-81
2022/03/15 00:25:55;;;;;;;36.17;21.25;;;;;;;5.10;41.78;101368.28;4968344;28;20061;-73
2022/03/15 00:28:23;;;;;;;40.53;24.55;;;;;;;5.07;41.92;101367.50;4969576;28;20131;-73
2022/03/15 00:30:50;;;;;;;37.58;19.95;;;;;;;5.03;41.86;101358.91;4971581;28;20682;-73
2022/03/15 00:33:17;;;;;;;38.38;22.55;;;;;;;5.00;41.93;101353.75;4970028;28;20117;-79
2022/03/15 00:35:44;;;;;;;39.63;19.63;;;;;;;5.00;41.90;101352.91;4970303;28;20078;-72
2022/03/15 00:38:13;;;;;;;41.92;21.55;;;;;;;4.97;41.98;101351.25;4969663;28;20126;-79
2022/03/15 00:40:40;;;;;;;37.72;22.15;;;;;;;4.95;41.92;101355.66;4969727;28;20051;-74
2022/03/15 00:43:07;;;;;;;44.25;21.10;;;;;;;4.92;41.88;101340.91;4969187;28;20142;-83
2022/03/15 00:45:34;;;;;;;39.92;23.48;;;;;;;4.91;41.89;101354.03;4969679;28;20053;-75
2022/03/15 00:48:01;;;;;;;37.35;20.70;;;;;;;4.88;41.99;101348.88;4969399;28;20054;-75
2022/03/15 00:50:30;;;;;;;43.80;23.98;;;;;;;4.84;41.99;101355.97;4967950;28;20065;-72
2022/03/15 00:52:59;;;;;;;42.92;21.45;;;;;;;4.82;42.03;101355.19;4970716;28;20402;-73
2022/03/15 00:55:28;;;;;;;41.15;20.83;;;;;;;4.82;41.99;101354.31;4971897;28;20454;-74
2022/03/15 00:57:55;;;;;;;46.42;22.98;;;;;;;4.78;42.18;101354.41;4966474;28;20057;-72
2022/03/15 01:00:22;;;;;;;42.53;21.23;;;;;;;4.77;42.00;101360.56;4968470;28;20133;-73
2022/03/15 01:02:49;;;;;;;42.30;22.50;;;;;;;4.75;42.10;101362.38;4972890;28;20137;-72
2022/03/15 01:05:17;;;;;;;46.40;22.90;;;;;;;4.74;42.12;101362.44;4975016;28;20046;-71
2022/03/15 01:07:44;;;;;;;38.35;22.33;;;;;;;4.73;42.23;101363.31;4977225;28;20050;-75
2022/03/15 01:10:11;;;;;;;39.60;22.17;;;;;;;4.74;42.29;101368.50;4975468;28;20054;-74
2022/03/15 01:12:39;;;;;;;41.92;23.25;;;;;;;4.74;42.29;101358.03;4970827;28;20130;-75
2022/03/15 01:15:08;;;;;;;38.53;21.50;;;;;;;4.74;42.33;101360.66;4969734;28;20061;-73
2022/03/15 01:17:35;;;;;;;46.25;21.83;;;;;;;4.73;42.30;101351.06;4969955;28;20058;-72
2022/03/15 01:20:02;;;;;;;36.67;21.85;;;;;;;4.76;42.41;101351.00;4983036;28;20159;-74
2022/03/15 01:22:29;;;;;;;38.05;20.27;;;;;;;4.74;42.50;101363.28;4984126;28;20047;-75
2022/03/15 01:24:56;;;;;;;42.88;21.25;;;;;;;4.77;42.35;101359.69;4981953;28;20070;-73
2022/03/15 01:27:23;;;;;;;46.03;22.20;;;;;;;4.76;42.50;101366.69;4979231;28;20077;-72
2022/03/15 01:29:51;;;;;;;41.88;23.52;;;;;;;4.76;42.58;101361.47;4983620;28;20310;-73
2022/03/15 01:32:19;;;;;;;41.35;22.73;;;;;;;4.76;42.68;101369.31;4983097;28;20138;-73
2022/03/15 01:34:46;;;;;;;45.08;21.30;;;;;;;4.76;42.51;101364.06;4980115;28;20048;-72
2022/03/15 01:37:14;;;;;;;39.33;22.77;;;;;;;4.77;42.65;101360.56;4973899;28;20392;-74
2022/03/15 01:39:41;;;;;;;44.22;20.60;;;;;;;4.76;42.69;101355.38;4974054;28;20103;-78
2022/03/15 01:42:08;;;;;;;39.72;22.60;;;;;;;4.76;42.64;101350.16;4972865;28;20129;-73
2022/03/15 01:44:39;;;;;;;40.97;23.08;;;;;;;4.77;42.70;101357.94;4974447;28;20513;-73
2022/03/15 01:47:08;;;;;;;40.03;19.50;;;;;;;4.81;42.85;101357.84;4973995;28;20046;-75
2022/03/15 01:49:35;;;;;;;41.25;20.30;;;;;;;4.82;42.72;101356.94;4973566;28;20059;-75
2022/03/15 01:52:01;;;;;;;42.75;22.45;;;;;;;4.85;42.79;101359.47;4971623;28;20062;-72
2022/03/15 01:54:29;;;;;;;41.42;20.92;;;;;;;4.84;42.69;101352.53;4970125;28;20118;-73
2022/03/15 01:56:55;;;;;;;35.25;20.88;;;;;;;4.84;42.81;101347.28;4968736;28;20046;-78
2022/03/15 01:59:22;;;;;;;41.58;23.10;;;;;;;4.86;42.64;101350.69;4970017;28;20057;-72
2022/03/15 02:01:49;;;;;;;34.67;22.20;;;;;;;4.90;42.68;101347.09;4968605;28;20134;-73
2022/03/15 02:04:18;;;;;;;34.60;20.05;;;;;;;4.90;42.80;101347.97;4967755;28;20043;-73
2022/03/15 02:06:45;;;;;;;39.40;21.65;;;;;;;4.91;42.68;101347.03;4967467;28;20051;-73
2022/03/15 02:09:14;;;;;;;44.00;23.00;;;;;;;4.94;42.91;101346.94;4966504;28;20066;-73
2022/03/15 02:11:42;;;;;;;37.35;20.95;;;;;;;4.94;42.70;101348.72;4966693;28;20740;-75
2022/03/15 02:14:10;;;;;;;39.80;21.25;;;;;;;4.93;42.92;101347.00;4966535;28;20053;-75
2022/03/15 02:16:37;;;;;;;34.72;20.58;;;;;;;4.95;42.78;101343.44;4966376;28;20046;-73
2022/03/15 02:19:05;;;;;;;39.92;21.38;;;;;;;4.95;42.87;101353.03;4966549;28;20135;-74
2022/03/15 02:21:36;;;;;;;42.40;22.45;;;;;;;4.96;42.70;101352.13;4966097;28;20113;-74
2022/03/15 02:24:04;;;;;;;41.42;21.92;;;;;;;4.93;42.68;101344.38;4949177;28;20047;-73
2022/03/15 02:26:31;;;;;;;35.17;20.48;;;;;;;4.89;42.74;101337.53;4965611;28;20168;-75
2022/03/15 02:28:58;;;;;;;43.95;21.38;;;;;;;4.88;43.02;101338.41;4968925;28;20129;-74
2022/03/15 02:31:25;;;;;;;40.78;19.73;;;;;;;4.87;42.85;101340.19;4970273;28;20131;-73
2022/03/15 02:33:52;;;;;;;41.30;19.73;;;;;;;4.85;42.85;101339.38;4970480;28;20064;-73
2022/03/15 02:36:19;;;;;;;41.65;20.30;;;;;;;4.83;42.99;101335.13;4970521;28;20061;-74
2022/03/15 02:38:48;;;;;;;34.55;21.60;;;;;;;4.85;42.91;101336.75;4969836;28;20133;-77
2022/03/15 02:41:16;;;;;;;34.78;20.35;;;;;;;4.82;43.03;101351.72;4970101;28;20536;-74
2022/03/15 02:43:45;;;;;;;42.13;21.33;;;;;;;4.79;42.99;101348.28;4970577;28;20074;-71
2022/03/15 02:46:12;;;;;;;42.75;21.50;;;;;;;4.80;43.17;101346.53;4970854;28;20142;-73
2022/03/15 02:48:39;;;;;;;40.58;23.25;;;;;;;4.80;43.21;101354.38;4970012;28;20055;-72
2022/03/15 02:51:10;;;;;;;37.55;22.15;;;;;;;4.79;43.27;101350.91;4969016;28;20051;-72
2022/03/15 02:53:38;;;;;;;37.55;19.65;;;;;;;4.76;43.30;101351.00;4970233;28;20059;-72
2022/03/15 02:56:10;;;;;;;41.47;20.33;;;;;;;4.78;43.15;101362.25;4970653;28;20050;-71
2022/03/15 02:58:38;;;;;;;37.55;21.73;;;;;;;4.78;43.19;101353.56;4971080;28;20079;-72
2022/03/15 03:01:05;;;;;;;34.78;19.75;;;;;;;4.76;43.28;101355.38;4970576;28;20395;-76
2022/03/15 03:03:32;;;;;;;36.88;22.40;;;;;;;4.76;43.27;101361.47;4969898;28;20134;-73
2022/03/15 03:05:59;;;;;;;43.28;21.17;;;;;;;4.76;43.08;101360.63;4968550;28;20051;-74
2022/03/15 03:08:27;;;;;;;38.03;21.45;;;;;;;4.74;43.42;101358.03;4969750;28;20053;-74
2022/03/15 03:10:55;;;;;;;42.35;19.90;;;;;;;4.74;43.39;101360.66;4969327;28;20061;-72
2022/03/15 03:13:26;;;;;;;36.85;21.92;;;;;;;4.74;43.41;101358.03;4969065;28;20070;-73
2022/03/15 03:15:55;;;;;;;32.45;20.15;;;;;;;4.75;43.48;101370.22;4968982;28;20410;-75
2022/03/15 03:18:22;;;;;;;43.45;20.33;;;;;;;4.74;43.57;101371.13;4968959;28;20059;-71
2022/03/15 03:20:50;;;;;;;35.05;20.23;;;;;;;4.73;43.49;101374.63;4969389;28;20134;-75
2022/03/15 03:23:17;;;;;;;40.70;20.58;;;;;;;4.74;43.60;101376.34;4970209;28;20051;-74
2022/03/15 03:25:44;;;;;;;39.17;19.20;;;;;;;4.79;43.32;101374.47;4973404;28;20047;-74
2022/03/15 03:28:13;;;;;;;34.30;19.65;;;;;;;4.90;43.38;101376.75;4974907;28;20667;-74
2022/03/15 03:30:47;;;;;;;33.97;18.60;;;;;;;5.07;43.17;101376.22;4977334;28;20108;-80
2022/03/15 03:33:14;;;;;;;37.83;20.42;;;;;;;5.23;42.90;101378.34;4997570;28;20050;-77
2022/03/15 03:35:43;;;;;;;32.10;18.23;;;;;;;5.33;42.67;101377.13;4996240;28;20125;-74
2022/03/15 03:38:10;;;;;;;39.75;20.35;;;;;;;5.39;42.70;101368.25;4996930;28;20050;-72
2022/03/15 03:40:37;;;;;;;37.35;21.17;;;;;;;5.41;42.48;101374.28;4991550;28;20141;-73
2022/03/15 03:43:05;;;;;;;43.50;20.80;;;;;;;5.38;42.55;101367.38;4994985;28;20050;-73
2022/03/15 03:45:32;;;;;;;35.58;19.50;;;;;;;5.33;42.89;101357.06;4996583;28;20093;-72
2022/03/15 03:48:01;;;;;;;35.33;20.92;;;;;;;5.30;43.00;101358.91;4994134;28;20042;-71
2022/03/15 03:50:28;;;;;;;33.50;20.10;;;;;;;5.25;43.04;101352.97;4995975;28;20137;-72
2022/03/15 03:52:55;;;;;;;39.88;21.25;;;;;;;5.29;43.01;101346.72;4996394;28;20571;-74
2022/03/15 03:55:22;;;;;;;35.05;20.02;;;;;;;5.38;42.81;101351.66;4990711;28;20042;-76
2022/03/15 03:57:49;;;;;;;37.00;18.58;;;;;;;5.50;42.68;101360.88;4988720;28;20574;-74
2022/03/15 04:00:17;;;;;;;39.80;21.52;;;;;;;5.60;42.59;101361.41;4992662;28;20073;-78
2022/03/15 04:02:44;;;;;;;35.90;19.77;;;;;;;5.67;42.50;101345.44;4992266;28;20060;-78
2022/03/15 04:05:15;;;;;;;34.75;19.75;;;;;;;5.71;42.43;101340.94;4991587;28;20425;-77
2022/03/15 04:07:43;;;;;;;35.60;20.27;;;;;;;5.82;42.39;101341.41;4990635;28;20087;-75
2022/03/15 04:10:12;;;;;;;35.85;20.60;;;;;;;5.87;42.40;101342.13;4991009;28;20051;-75
2022/03/15 04:12:39;;;;;;;35.95;20.67;;;;;;;5.91;42.33;101343.72;4990486;28;20050;-77
2022/03/15 04:15:07;;;;;;;35.22;19.85;;;;;;;5.95;42.38;101349.69;4991312;28;20046;-73
2022/03/15 04:17:35;;;;;;;35.20;17.98;;;;;;;5.92;42.50;101345.44;4990511;28;20129;-83
2022/03/15 04:20:03;;;;;;;32.22;19.95;;;;;;;5.96;42.45;101347.97;4992009;28;20527;-79
2022/03/15 04:22:31;;;;;;;34.92;17.98;;;;;;;6.01;42.46;101351.28;4989612;28;20521;-79
2022/03/15 04:24:58;;;;;;;33.92;19.13;;;;;;;6.04;42.37;101349.41;4988053;28;20043;-74
2022/03/15 04:27:25;;;;;;;35.15;20.10;;;;;;;6.07;42.52;101351.91;4990488;28;20584;-73
2022/03/15 04:29:52;;;;;;;33.47;18.90;;;;;;;6.09;42.39;101357.97;4991528;28;20156;-79
2022/03/15 04:32:20;;;;;;;39.75;21.35;;;;;;;6.02;42.68;101364.34;4990079;28;20073;-76
2022/03/15 04:34:47;;;;;;;32.65;20.55;;;;;;;5.97;42.75;101366.25;4989426;28;20572;-82
2022/03/15 04:37:14;;;;;;;33.55;19.80;;;;;;;5.91;42.89;101361.22;4989451;28;20083;-79
2022/03/15 04:39:42;;;;;;;36.53;20.55;;;;;;;5.82;43.04;101365.00;4988957;28;20061;-75
2022/03/15 04:42:10;;;;;;;38.47;20.55;;;;;;;5.78;43.17;101359.91;4989385;28;20056;-79
2022/03/15 04:44:37;;;;;;;42.50;20.13;;;;;;;5.68;43.33;101364.63;4989304;28;20487;-74
2022/03/15 04:47:05;;;;;;;34.38;18.75;;;;;;;5.60;43.32;101369.28;4990470;28;20074;-71
2022/03/15 04:49:32;;;;;;;38.45;21.90;;;;;;;5.51;43.57;101366.06;4989512;28;20735;-76
2022/03/15 04:51:59;;;;;;;42.00;21.48;;;;;;;5.44;43.68;101364.56;4988773;28;20046;-75
2022/03/15 04:54:26;;;;;;;42.65;22.67;;;;;;;5.40;43.76;101362.91;4989795;28;20056;-73
2022/03/15 04:56:54;;;;;;;44.65;21.65;;;;;;;5.34;43.84;101361.38;4988534;28;20502;-73
2022/03/15 04:59:22;;;;;;;37.33;20.35;;;;;;;5.31;44.12;101364.13;4990266;28;20053;-73
2022/03/15 05:01:49;;;;;;;39.20;19.92;;;;;;;5.28;43.88;101369.44;5006931;28;20034;-72
2022/03/15 05:04:16;;;;;;;29.77;20.35;;;;;;;5.24;43.94;101369.56;5002126;28;20077;-77
2022/03/15 05:06:43;;;;;;;31.55;19.83;;;;;;;5.23;43.96;101362.66;4997716;28;20642;-76
2022/03/15 05:09:10;;;;;;;36.35;21.45;;;;;;;5.19;44.07;101361.88;4989872;28;20133;-75
2022/03/15 05:11:36;;;;;;;40.08;21.42;;;;;;;5.22;44.08;101368.78;4989665;28;20134;-73
2022/03/15 05:14:04;;;;;;;33.88;22.15;;;;;;;5.22;44.13;101376.63;4987763;28;20069;-78
2022/03/15 05:16:31;;;;;;;37.20;21.95;;;;;;;5.21;44.16;101372.31;4989191;28;20050;-73
2022/03/15 05:18:58;;;;;;;44.28;25.05;;;;;;;5.21;44.27;101377.56;4989572;28;20051;-78
2022/03/15 05:21:25;;;;;;;42.53;25.02;;;;;;;5.21;44.20;101377.56;4987297;28;20046;-76
2022/03/15 05:23:55;;;;;;;47.30;24.38;;;;;;;5.25;44.31;101368.69;4992708;28;20049;-75
2022/03/15 05:26:23;;;;;;;46.22;25.25;;;;;;;5.27;44.24;101375.56;4991680;28;20121;-74
2022/03/15 05:28:50;;;;;;;46.47;28.10;;;;;;;5.27;44.29;101372.94;4994781;28;20061;-78
2022/03/15 05:31:20;;;;;;;47.75;26.60;;;;;;;5.33;44.36;101369.28;4992736;28;20057;-72
2022/03/15 05:33:47;;;;;;;49.08;26.05;;;;;;;5.35;44.29;101359.63;4989604;28;20050;-75
2022/03/15 05:36:15;;;;;;;48.45;24.20;;;;;;;5.38;44.36;101366.50;4989072;28;20053;-80
2022/03/15 05:38:42;;;;;;;52.97;24.63;;;;;;;5.43;44.23;101370.69;4990912;28;20556;-76
2022/03/15 05:41:09;;;;;;;37.83;21.48;;;;;;;5.49;44.31;101374.88;4989030;28;20487;-79
2022/03/15 05:43:37;;;;;;;48.65;25.33;;;;;;;5.52;44.21;101357.28;4987165;28;20129;-76
2022/03/15 05:46:04;;;;;;;47.13;23.55;;;;;;;5.59;44.22;101362.34;4986885;28;20047;-72
2022/03/15 05:48:34;;;;;;;42.17;24.42;;;;;;;5.64;44.46;101355.19;4986344;28;20090;-72
2022/03/15 05:51:01;;;;;;;44.30;21.10;;;;;;;5.72;44.27;101359.22;4989599;28;20050;-73
2022/03/15 05:53:28;;;;;;;44.95;25.20;;;;;;;5.77;44.21;101361.69;4988560;28;20077;-77
2022/03/15 05:55:55;;;;;;;36.65;21.80;;;;;;;5.84;44.43;101355.31;4988488;28;20087;-75
2022/03/15 05:58:22;;;;;;;37.67;21.50;;;;;;;5.89;44.32;101352.56;4983955;28;20050;-78
2022/03/15 06:00:51;;;;;;;36.55;22.38;;;;;;;5.96;44.36;101350.59;4989394;28;20050;-74
2022/03/15 06:03:18;;;;;;;35.05;20.92;;;;;;;6.03;44.27;101355.56;4987958;28;20160;-81
2022/03/15 06:05:46;;;;;;;46.80;23.25;;;;;;;6.10;44.40;101364.06;4990977;28;20081;-75
2022/03/15 06:08:14;;;;;;;41.03;24.27;;;;;;;6.16;44.54;101373.47;4989212;28;20050;-81
2022/03/15 06:10:42;;;;;;;35.42;20.80;;;;;;;6.23;44.38;101372.34;4971858;28;20696;-72
2022/03/15 06:13:10;;;;;;;41.72;22.27;;;;;;;6.28;44.57;101373.91;4991304;28;20062;-72
2022/03/15 06:15:37;;;;;;;41.00;22.17;;;;;;;6.38;44.47;101382.28;4992387;28;20050;-72
2022/03/15 06:18:05;;;;;;;41.38;24.63;;;;;;;6.47;44.68;101387.19;4993194;28;20204;-76
2022/03/15 06:20:33;;;;;;;38.88;19.52;;;;;;;6.56;44.76;101380.75;4990966;28;20054;-76
2022/03/15 06:23:02;;;;;;;47.63;24.52;;;;;;;6.65;45.06;101388.25;4988674;28;20061;-74
2022/03/15 06:25:30;;;;;;;44.60;25.10;;;;;;;6.75;45.10;101377.41;4989276;28;20046;-76
2022/03/15 06:27:57;;;;;;;40.67;23.52;;;;;;;6.85;45.28;101379.63;4988629;28;20073;-77
2022/03/15 06:30:25;;;;;;;38.78;23.95;;;;;;;6.99;45.20;101379.09;4990225;28;20058;-81
2022/03/15 06:32:52;;;;;;;38.22;20.58;;;;;;;7.09;45.31;101371.69;4988255;28;20133;-77
2022/03/15 06:35:20;;;;;;;36.15;21.08;;;;;;;7.20;45.12;101371.25;4989474;28;20057;-74
2022/03/15 06:37:51;;;;;;;45.45;23.17;;;;;;;7.32;45.47;101367.28;4972210;28;20051;-81
2022/03/15 06:40:24;;;;;;;38.10;21.40;;;;;;;7.45;45.61;101374.59;4969931;28;20057;-73
2022/03/15 06:42:52;;;;;;;35.88;23.27;;;;;;;7.65;45.72;101380.78;4971136;28;20042;-74
2022/03/15 06:45:19;;;;;;;35.70;19.02;;;;;;;7.88;45.49;101384.22;4969146;28;20074;-75
2022/03/15 06:47:46;;;;;;;32.08;22.33;;;;;;;8.00;45.67;101381.06;4969430;28;20130;-75
2022/03/15 06:50:14;;;;;;;32.53;21.15;;;;;;;8.10;45.60;101389.41;4969427;28;20116;-74
2022/03/15 06:52:42;;;;;;;37.40;19.67;;;;;;;8.22;45.63;101392.34;4970088;28;20117;-73
2022/03/15 06:55:11;;;;;;;32.17;19.17;;;;;;;8.33;45.72;101391.00;4969355;28;20106;-76
2022/03/15 06:57:39;;;;;;;30.98;23.50;;;;;;;8.45;45.98;101393.13;4968984;28;20129;-75
2022/03/15 07:00:09;;;;;;;27.33;17.55;;;;;;;8.56;45.85;101398.75;4967620;28;20416;-75
2022/03/15 07:02:36;;;;;;;27.65;19.02;;;;;;;8.68;45.90;101391.19;4968574;28;20058;-74
2022/03/15 07:05:03;;;;;;;29.48;17.58;;;;;;;8.83;45.87;101405.47;4969782;28;20051;-78
2022/03/15 07:07:30;;;;;;;30.38;19.38;;;;;;;8.93;46.14;101391.78;4967303;28;20137;-75
2022/03/15 07:09:57;;;;;;;29.17;17.02;;;;;;;9.07;46.22;101400.81;4966563;28;20134;-74
2022/03/15 07:12:25;;;;;;;28.50;19.73;;;;;;;9.29;46.26;101388.31;4967440;28;20130;-77
2022/03/15 07:14:54;;;;;;;29.25;18.20;;;;;;;9.58;46.03;101388.66;4965826;28;20055;-75
2022/03/15 07:17:21;;;;;;;33.45;20.23;;;;;;;9.88;45.80;101391.50;4967777;28;20043;-76
2022/03/15 07:19:48;;;;;;;33.08;19.30;;;;;;;10.14;45.40;101391.94;4968125;28;20491;-75
2022/03/15 07:22:15;;;;;;;29.15;18.00;;;;;;;10.44;45.16;101402.72;4965993;28;20560;-74
2022/03/15 07:24:42;;;;;;;35.45;19.52;;;;;;;10.63;44.73;101402.56;4969298;28;20137;-73
2022/03/15 07:27:09;;;;;;;31.25;17.50;;;;;;;10.78;44.63;101392.91;4967221;28;20057;-75
2022/03/15 07:29:38;;;;;;;32.45;19.67;;;;;;;10.91;44.37;101398.38;4967150;28;20054;-74
2022/03/15 07:32:08;;;;;;;28.00;18.35;;;;;;;11.02;44.40;101398.66;4937682;28;20459;-77
2022/03/15 07:34:35;;;;;;;30.42;17.77;;;;;;;10.95;44.57;101391.13;4969031;28;20082;-78
2022/03/15 07:37:02;;;;;;;29.70;17.33;;;;;;;10.90;44.86;101394.88;4968061;28;20739;-77
2022/03/15 07:39:29;;;;;;;30.40;21.85;;;;;;;10.89;45.00;101393.19;4968915;28;20102;-74
2022/03/15 07:41:57;;;;;;;32.13;19.17;;;;;;;10.83;44.91;101395.31;4966554;28;20482;-75
2022/03/15 07:44:24;;;;;;;27.42;17.67;;;;;;;10.86;45.06;101405.72;4967114;28;20106;-74
2022/03/15 07:46:51;;;;;;;37.72;21.23;;;;;;;10.81;45.20;101405.97;4968086;28;20078;-73
2022/03/15 07:49:21;;;;;;;34.58;23.40;;;;;;;10.78;45.35;101408.78;4966232;28;20142;-74
2022/03/15 07:51:49;;;;;;;37.20;22.48;;;;;;;10.71;45.46;101408.28;4965758;28;20540;-75
2022/03/15 07:54:17;;;;;;;35.13;22.30;;;;;;;10.69;45.55;101409.28;4967967;28;20122;-76
2022/03/15 07:56:44;;;;;;;35.88;22.23;;;;;;;10.67;45.38;101419.09;4963524;28;20133;-74
2022/03/15 07:59:11;;;;;;;35.17;21.17;;;;;;;10.71;45.29;101424.13;4965293;28;20571;-74
2022/03/15 08:01:38;;;;;;;41.70;21.13;;;;;;;10.81;45.25;101421.00;4966453;28;20135;-74
2022/03/15 08:04:06;;;;;;;39.85;22.63;;;;;;;10.92;44.98;101421.25;4963773;28;20047;-74
2022/03/15 08:06:35;;;;;;;40.88;23.33;;;;;;;11.03;44.96;101425.94;4965433;28;20488;-74
2022/03/15 08:09:03;;;;;;;30.45;19.83;;;;;;;11.13;44.69;101416.56;4965836;28;20054;-74
2022/03/15 08:11:31;;;;;;;35.97;22.23;;;;;;;11.35;44.35;101420.63;4964389;28;20070;-76
2022/03/15 08:13:58;;;;;;;37.10;21.90;;;;;;;11.45;44.03;101416.50;4965564;28;20561;-74
2022/03/15 08:16:26;;;;;;;35.40;20.58;;;;;;;11.61;44.04;101405.88;4967195;28;20051;-76
2022/03/15 08:18:54;;;;;;;37.17;20.75;;;;;;;11.85;43.61;101408.91;4966273;28;20135;-78
2022/03/15 08:21:22;;;;;;;27.73;17.73;;;;;;;11.98;43.58;101411.69;4966182;28;20078;-75
2022/03/15 08:23:50;;;;;;;31.33;20.10;;;;;;;12.12;43.38;101397.59;4966374;28;20466;-74
2022/03/15 08:26:17;;;;;;;34.35;21.73;;;;;;;12.25;43.26;101414.47;4963947;28;20047;-75
2022/03/15 08:28:45;;;;;;;29.23;18.60;;;;;;;12.34;43.08;101411.25;4965114;28;20151;-75
2022/03/15 08:31:13;;;;;;;30.83;19.77;;;;;;;12.46;43.07;101408.78;4966449;28;20058;-75
2022/03/15 08:33:40;;;;;;;28.65;19.88;;;;;;;12.54;43.07;101417.13;4965364;28;20177;-79
2022/03/15 08:36:07;;;;;;;33.05;20.13;;;;;;;12.57;42.95;101411.63;4966328;28;20086;-74
2022/03/15 08:38:35;;;;;;;31.88;20.50;;;;;;;12.70;42.97;101415.22;4966006;28;20466;-75
2022/03/15 08:41:05;;;;;;;33.22;19.63;;;;;;;12.87;42.63;101406.19;4966784;28;20058;-79
2022/03/15 08:43:32;;;;;;;30.50;20.40;;;;;;;12.99;42.79;101405.41;4969239;28;20074;-73
2022/03/15 08:45:59;;;;;;;32.50;20.88;;;;;;;12.88;42.86;101409.69;4970605;28;20050;-77
2022/03/15 08:48:34;;;;;;;32.90;22.40;;;;;;;12.68;43.17;101403.00;4970701;28;20066;-75
2022/03/15 08:51:01;;;;;;;25.50;17.00;;;;;;;12.50;43.54;101395.25;4968232;28;20100;-75
2022/03/15 08:53:34;;;;;;;27.55;19.67;;;;;;;12.48;43.93;101389.22;4972437;28;20046;-76
2022/03/15 08:56:03;;;;;;;24.75;18.08;;;;;;;12.56;44.00;101399.31;4969314;28;20719;-77
2022/03/15 08:58:30;;;;;;;29.02;18.33;;;;;;;12.54;44.31;101396.75;4970014;28;20137;-74
2022/03/15 09:00:59;;;;;;;24.63;16.67;;;;;;;12.57;44.25;101391.28;4968376;28;20059;-78
2022/03/15 09:03:26;;;;;;;25.13;16.83;;;;;;;12.62;44.12;101396.28;4966091;28;20636;-78
2022/03/15 09:05:53;;;;;;;29.15;16.92;;;;;;;12.68;44.07;101392.41;4966469;28;20055;-75
2022/03/15 09:08:20;;;;;;;24.00;17.75;;;;;;;12.77;44.02;101403.28;4966945;28;20383;-77
2022/03/15 09:10:48;;;;;;;24.23;16.67;;;;;;;12.77;43.91;101400.63;4966393;28;20077;-77
2022/03/15 09:13:16;;;;;;;29.98;17.73;;;;;;;12.70;44.19;101394.00;4967899;28;20507;-79
2022/03/15 09:15:44;;;;;;;25.42;17.50;;;;;;;12.82;43.97;101390.56;4965864;28;20050;-75
2022/03/15 09:18:11;;;;;;;27.25;16.48;;;;;;;12.94;43.89;101396.03;4967419;28;20455;-78
2022/03/15 09:20:38;;;;;;;24.52;16.00;;;;;;;13.17;43.36;101400.69;4968998;28;20149;-73
2022/03/15 09:23:07;;;;;;;27.13;19.75;;;;;;;13.26;43.41;101398.41;4973412;28;20744;-75
2022/03/15 09:25:35;;;;;;;24.67;18.10;;;;;;;13.44;43.05;101389.25;4970303;28;20663;-77
2022/03/15 09:28:02;;;;;;;27.00;17.80;;;;;;;13.67;42.52;101393.03;4964130;28;20051;-78
2022/03/15 09:30:30;;;;;;;25.40;17.88;;;;;;;13.75;42.50;101385.38;4967108;28;20043;-73
2022/03/15 09:32:58;;;;;;;31.10;22.00;;;;;;;13.62;42.91;101389.84;4969998;28;20488;-74
2022/03/15 09:35:25;;;;;;;26.75;19.15;;;;;;;13.72;42.72;101384.75;4968843;28;20252;-73
2022/03/15 09:37:53;;;;;;;30.52;18.30;;;;;;;14.11;42.22;101380.31;4964793;28;20738;-74
2022/03/15 09:40:25;;;;;;;30.73;19.15;;;;;;;14.37;41.77;101378.50;4963866;28;20240;-74
2022/03/15 09:42:59;;;;;;;23.42;16.02;;;;;;;14.61;41.32;101388.38;4964974;28;20117;-74
2022/03/15 09:45:32;;;;;;;27.25;17.70;;;;;;;14.76;41.03;101383.78;4963824;28;20069;-78
2022/03/15 09:48:02;;;;;;;28.67;17.95;;;;;;;14.90;40.96;101376.47;4970088;28;20065;-75
2022/03/15 09:50:29;;;;;;;28.73;19.48;;;;;;;15.14;40.66;101375.63;4968650;28;20456;-75
2022/03/15 09:52:58;;;;;;;27.77;19.70;;;;;;;15.06;40.74;101373.56;4966867;28;20051;-73
2022/03/15 09:55:25;;;;;;;28.25;21.75;;;;;;;14.89;40.84;101368.63;4965425;28;20047;-74
2022/03/15 09:57:53;;;;;;;28.05;20.02;;;;;;;14.47;41.63;101366.25;4965829;28;20771;-76
2022/03/15 10:00:21;;;;;;;24.75;17.55;;;;;;;14.43;41.82;101369.25;4965959;28;20050;-75
2022/03/15 10:02:50;;;;;;;27.13;18.92;;;;;;;14.63;41.51;101359.88;4968679;28;20075;-75
2022/03/15 10:05:19;;;;;;;31.92;22.77;;;;;;;14.27;42.23;101365.00;4965037;28;20130;-77
2022/03/15 10:07:47;;;;;;;31.85;23.63;;;;;;;14.05;42.64;101364.81;4966733;28;20051;-74
2022/03/15 10:10:16;;;;;;;28.05;18.40;;;;;;;13.99;42.82;101365.22;4965677;28;20693;-74
2022/03/15 10:12:43;;;;;;;35.38;20.52;;;;;;;14.26;42.41;101358.00;4965454;28;20137;-75
2022/03/15 10:15:15;;;;;;;29.45;18.73;;;;;;;14.40;42.29;101356.16;4981709;28;20046;-75
2022/03/15 10:17:43;;;;;;;36.08;22.80;;;;;;;14.78;41.74;101349.94;4986804;28;20586;-76
2022/03/15 10:20:16;;;;;;;32.20;25.13;;;;;;;14.36;41.81;101354.69;4968099;28;20087;-75
2022/03/15 10:22:52;;;;;;;30.50;22.10;;;;;;;14.08;42.55;101346.00;4963955;28;20050;-76
2022/03/15 10:25:20;;;;;;;;;;;;;;;14.18;42.36;101348.88;4964145;28;20097;-74
2022/03/15 10:27:51;;;;;;;34.08;23.45;;;;;;;13.78;42.87;101347.16;4961400;28;19969;-75
2022/03/15 10:30:18;;;;;;;33.65;27.20;;;;;;;13.47;43.57;101338.63;4963579;28;20058;-74
2022/03/15 10:32:47;;;;;;;32.30;20.23;;;;;;;13.74;43.21;101341.22;4963010;28;20143;-75
2022/03/15 10:35:19;;;;;;;29.65;20.13;;;;;;;14.33;42.21;101337.13;4962997;28;20276;-75
2022/03/15 10:37:46;;;;;;;25.42;17.90;;;;;;;14.69;41.64;101333.69;4963651;28;20129;-76
2022/03/15 10:40:13;;;;;;;26.77;17.73;;;;;;;15.01;41.08;101325.16;4962539;28;20227;-73
2022/03/15 10:42:43;;;;;;;22.88;16.00;;;;;;;15.30;40.57;101324.78;4965044;28;20051;-75
2022/03/15 10:45:18;;;;;;;27.60;18.67;;;;;;;15.40;40.29;101323.13;4964675;28;20055;-77
2022/03/15 10:47:50;;;;;;;27.30;18.15;;;;;;;15.82;39.51;101312.84;4964032;28;20648;-74
2022/03/15 10:50:18;;;;;;;28.45;17.08;;;;;;;16.17;39.12;101316.34;4967614;28;20080;-76
2022/03/15 10:52:46;;;;;;;23.33;16.88;;;;;;;16.50;38.71;101296.81;4969256;28;20094;-73
2022/03/15 10:55:16;;;;;;;21.55;15.77;;;;;;;16.52;38.47;101299.38;4968494;28;20162;-75
2022/03/15 10:57:51;;;;;;;21.85;16.65;;;;;;;16.53;38.56;101293.91;4967884;28;20487;-74
2022/03/15 11:00:22;;;;;;;20.15;14.70;;;;;;;16.54;38.49;101292.94;4971306;28;20126;-75
2022/03/15 11:02:50;;;;;;;21.50;15.82;;;;;;;16.38;38.53;101295.97;4970386;28;20047;-75
2022/03/15 11:05:34;;;;;;;21.23;14.80;;;;;;;16.11;38.95;101288.38;4967434;28;20169;-75
2022/03/15 11:08:05;;;;;;;19.92;15.50;;;;;;;15.92;39.09;101297.00;4965120;28;20764;-75
2022/03/15 11:10:32;;;;;;;22.88;14.70;;;;;;;15.52;39.14;101293.88;4968798;28;20042;-75
2022/03/15 11:13:05;;;;;;;22.45;17.27;;;;;;;15.46;39.35;101290.72;4969647;28;20138;-75
2022/03/15 11:15:36;;;;;;;27.25;21.80;;;;;;;15.35;39.28;101290.69;4952064;28;20483;-75
2022/03/15 11:18:07;;;;;;;26.95;17.23;;;;;;;15.07;40.10;101295.44;4968152;28;20132;-74